PWSweather.com
Personal Weather Stations
Station Observations
MART18
Seleziona Stato..., MartinsicuroIT italia

Seleziona Stato...MartinsicuroIT italia

Lat: 42.885169, Lon: 13.918447300000025

Elevation: 3

Station Type: Davis vantage vp2

branciuno67@gmail.com

High Low Average
Temperature 51.2°F10.7°F 37.1°F2.8°F 45.6°F7.6°F
Dew Point 40.1°F4.5°F 29.2°F-1.6°F 35.9°F2.2°F
Winds 11.0 mph -17.7 mph - Calm Calm 2.2 mph 3.5 mph
Wind Gusts 15.0 mph24.1 mph -- 5.2 mph8.4 mph
Humidity 80% 61% 69%
Pressure 30.13 in1020.30 in 29.76 in1007.80 in -
Precipitation 1.44 in36.60 in - -
Hour Temp Dew Point Humidity Winds Wind Gusts Pressure Precip Precip Rate Daily Precip Total
12:00 AM 42.2°F5.7°C 33.4°F0.8°C 71% 1.0 mph S1.6 kmh S 4.0 mph6.4 kmh 29.76 in1007.8 mb 0.00 in0.0 mm 0.00 in0.0 mm 0.00 in0.0 mm
12:05 AM 42.4°F5.8°C 33.6°F0.9°C 71% Calm Calm 3.0 mph4.8 kmh 29.76 in1007.8 mb 0.00 in0.0 mm 0.00 in0.0 mm 0.00 in0.0 mm
12:10 AM 42.4°F5.8°C 33.6°F0.9°C 71% 1.0 mph S1.6 kmh S 2.0 mph3.2 kmh 29.77 in1008.1 mb 0.00 in0.0 mm 0.00 in0.0 mm 0.00 in0.0 mm
12:15 AM 42.0°F5.6°C 33.2°F0.7°C 71% 2.0 mph S3.2 kmh S 3.0 mph4.8 kmh 29.77 in1008.1 mb 0.00 in0.0 mm 0.00 in0.0 mm 0.00 in0.0 mm
12:20 AM 41.4°F5.2°C 32.3°F0.2°C 70% 3.0 mph W4.8 kmh W 6.0 mph9.7 kmh 29.77 in1008.1 mb 0.00 in0.0 mm 0.00 in0.0 mm 0.00 in0.0 mm
12:25 AM 40.8°F4.9°C 32.1°F0.1°C 71% 2.0 mph W3.2 kmh W 6.0 mph9.7 kmh 29.77 in1008.1 mb 0.00 in0.0 mm 0.00 in0.0 mm 0.00 in0.0 mm
12:30 AM 40.9°F4.9°C 32.2°F0.1°C 71% 3.0 mph W4.8 kmh W 6.0 mph9.7 kmh 29.78 in1008.5 mb 0.00 in0.0 mm 0.00 in0.0 mm 0.00 in0.0 mm
12:35 AM 41.3°F5.2°C 32.6°F0.3°C 71% 2.0 mph W3.2 kmh W 6.0 mph9.7 kmh 29.78 in1008.5 mb 0.00 in0.0 mm 0.00 in0.0 mm 0.00 in0.0 mm
12:40 AM 42.5°F5.8°C 33.4°F0.8°C 70% 3.0 mph W4.8 kmh W 11.0 mph17.7 kmh 29.78 in1008.5 mb 0.00 in0.0 mm 0.00 in0.0 mm 0.00 in0.0 mm
12:45 AM 43.0°F6.1°C 32.8°F0.4°C 67% 4.0 mph W6.4 kmh W 7.0 mph11.3 kmh 29.78 in1008.5 mb 0.00 in0.0 mm 0.00 in0.0 mm 0.00 in0.0 mm
12:50 AM 43.2°F6.2°C 32.6°F0.3°C 66% 3.0 mph W4.8 kmh W 7.0 mph11.3 kmh 29.79 in1008.8 mb 0.00 in0.0 mm 0.00 in0.0 mm 0.00 in0.0 mm
12:55 AM 43.7°F6.5°C 32.3°F0.2°C 64% 2.0 mph WSW3.2 kmh WSW 6.0 mph9.7 kmh 29.78 in1008.5 mb 0.00 in0.0 mm 0.00 in0.0 mm 0.00 in0.0 mm
01:00 AM 44.1°F6.7°C 32.3°F0.2°C 63% 4.0 mph W6.4 kmh W 8.0 mph12.9 kmh 29.79 in1008.8 mb 0.00 in0.0 mm 0.00 in0.0 mm 0.00 in0.0 mm
01:05 AM 45.0°F7.2°C 33.1°F0.6°C 63% 4.0 mph W6.4 kmh W 13.0 mph20.9 kmh 29.79 in1008.8 mb 0.00 in0.0 mm 0.00 in0.0 mm 0.00 in0.0 mm
01:10 AM 45.3°F7.4°C 33.4°F0.8°C 63% 3.0 mph WSW4.8 kmh WSW 8.0 mph12.9 kmh 29.79 in1008.8 mb 0.00 in0.0 mm 0.00 in0.0 mm 0.00 in0.0 mm
01:15 AM 45.7°F7.6°C 33.8°F1.0°C 63% 4.0 mph W6.4 kmh W 13.0 mph20.9 kmh 29.79 in1008.8 mb 0.00 in0.0 mm 0.00 in0.0 mm 0.00 in0.0 mm
01:20 AM 46.7°F8.2°C 35.5°F1.9°C 65% 9.0 mph NW14.5 kmh NW 13.0 mph20.9 kmh 29.79 in1008.8 mb 0.00 in0.0 mm 0.00 in0.0 mm 0.00 in0.0 mm
01:25 AM 47.6°F8.7°C 36.4°F2.4°C 65% 8.0 mph WNW12.9 kmh WNW 15.0 mph24.1 kmh 29.80 in1009.1 mb 0.00 in0.0 mm 0.00 in0.0 mm 0.00 in0.0 mm
01:30 AM 48.0°F8.9°C 37.1°F2.8°C 66% 9.0 mph WNW14.5 kmh WNW 15.0 mph24.1 kmh 29.80 in1009.1 mb 0.00 in0.0 mm 0.00 in0.0 mm 0.00 in0.0 mm
01:35 AM 48.2°F9.0°C 37.3°F2.9°C 66% 5.0 mph WNW8.0 kmh WNW 12.0 mph19.3 kmh 29.80 in1009.1 mb 0.00 in0.0 mm 0.00 in0.0 mm 0.00 in0.0 mm
01:40 AM 48.3°F9.1°C 37.8°F3.2°C 67% 4.0 mph W6.4 kmh W 13.0 mph20.9 kmh 29.81 in1009.5 mb 0.00 in0.0 mm 0.00 in0.0 mm 0.00 in0.0 mm
01:45 AM 48.3°F9.1°C 37.8°F3.2°C 67% 2.0 mph NW3.2 kmh NW 11.0 mph17.7 kmh 29.81 in1009.5 mb 0.00 in0.0 mm 0.00 in0.0 mm 0.00 in0.0 mm
01:50 AM 48.1°F8.9°C 38.0°F3.3°C 68% 10.0 mph WNW16.1 kmh WNW 11.0 mph17.7 kmh 29.82 in1009.8 mb 0.00 in0.0 mm 0.00 in0.0 mm 0.00 in0.0 mm
01:55 AM 48.0°F8.9°C 38.3°F3.5°C 69% 3.0 mph WNW4.8 kmh WNW 11.0 mph17.7 kmh 29.83 in1010.2 mb 0.00 in0.0 mm 0.00 in0.0 mm 0.00 in0.0 mm
02:00 AM 47.9°F8.8°C 38.5°F3.6°C 70% 7.0 mph NW11.3 kmh NW 10.0 mph16.1 kmh 29.83 in1010.2 mb 0.00 in0.0 mm 0.00 in0.0 mm 0.00 in0.0 mm
02:05 AM 47.9°F8.8°C 38.5°F3.6°C 70% 2.0 mph NW3.2 kmh NW 10.0 mph16.1 kmh 29.84 in1010.5 mb 0.00 in0.0 mm 0.00 in0.0 mm 0.00 in0.0 mm
02:10 AM 48.0°F8.9°C 38.6°F3.7°C 70% 4.0 mph N6.4 kmh N 11.0 mph17.7 kmh 29.84 in1010.5 mb 0.00 in0.0 mm 0.00 in0.0 mm 0.00 in0.0 mm
02:15 AM 48.0°F8.9°C 38.6°F3.7°C 70% 6.0 mph NW9.7 kmh NW 12.0 mph19.3 kmh 29.84 in1010.5 mb 0.00 in0.0 mm 0.00 in0.0 mm 0.00 in0.0 mm
02:20 AM 47.8°F8.8°C 38.4°F3.6°C 70% 2.0 mph N3.2 kmh N 10.0 mph16.1 kmh 29.85 in1010.8 mb 0.00 in0.0 mm 0.00 in0.0 mm 0.00 in0.0 mm
02:25 AM 47.7°F8.7°C 38.7°F3.7°C 71% 3.0 mph N4.8 kmh N 9.0 mph14.5 kmh 29.86 in1011.2 mb 0.00 in0.0 mm 0.00 in0.0 mm 0.00 in0.0 mm
02:30 AM 47.9°F8.8°C 38.9°F3.8°C 71% 9.0 mph N14.5 kmh N 13.0 mph20.9 kmh 29.86 in1011.2 mb 0.00 in0.0 mm 0.00 in0.0 mm 0.00 in0.0 mm
02:35 AM 48.4°F9.1°C 40.1°F4.5°C 73% 2.0 mph NNE3.2 kmh NNE 12.0 mph19.3 kmh 29.86 in1011.2 mb 0.00 in0.0 mm 0.00 in0.0 mm 0.00 in0.0 mm
02:40 AM 48.3°F9.1°C 40.0°F4.4°C 73% 3.0 mph NNE4.8 kmh NNE 3.0 mph4.8 kmh 29.87 in1011.5 mb 0.00 in0.0 mm 0.00 in0.0 mm 0.00 in0.0 mm
02:45 AM 48.1°F8.9°C 39.8°F4.3°C 73% 1.0 mph NNE1.6 kmh NNE 4.0 mph6.4 kmh 29.87 in1011.5 mb 0.00 in0.0 mm 0.00 in0.0 mm 0.00 in0.0 mm
02:50 AM 47.9°F8.8°C 40.0°F4.4°C 74% Calm Calm 3.0 mph4.8 kmh 29.87 in1011.5 mb 0.00 in0.0 mm 0.00 in0.0 mm 0.00 in0.0 mm
02:55 AM 47.7°F8.7°C 39.8°F4.3°C 74% Calm Calm 1.0 mph1.6 kmh 29.87 in1011.5 mb 0.00 in0.0 mm 0.00 in0.0 mm 0.00 in0.0 mm
03:00 AM 47.4°F8.6°C 39.5°F4.2°C 74% Calm Calm 2.0 mph3.2 kmh 29.88 in1011.9 mb 0.00 in0.0 mm 0.00 in0.0 mm 0.00 in0.0 mm
03:05 AM 47.1°F8.4°C 39.2°F4.0°C 74% 1.0 mph NNE1.6 kmh NNE 5.0 mph8.0 kmh 29.88 in1011.9 mb 0.00 in0.0 mm 0.00 in0.0 mm 0.00 in0.0 mm
03:10 AM 47.0°F8.3°C 39.4°F4.1°C 75% Calm Calm -- 29.88 in1011.9 mb 0.02 in0.5 mm 0.24 in6.1 mm 0.02 in0.5 mm
03:15 AM 46.6°F8.1°C 39.1°F3.9°C 75% 5.0 mph NNE8.0 kmh NNE 5.0 mph8.0 kmh 29.89 in1012.2 mb 0.07 in1.8 mm 0.60 in15.2 mm 0.07 in1.8 mm
03:20 AM 46.0°F7.8°C 38.8°F3.8°C 76% 2.0 mph NNE3.2 kmh NNE 5.0 mph8.0 kmh 29.88 in1011.9 mb 0.11 in2.8 mm 0.48 in12.2 mm 0.11 in2.8 mm
03:25 AM 45.4°F7.4°C 38.6°F3.7°C 77% 2.0 mph NNE3.2 kmh NNE 2.0 mph3.2 kmh 29.89 in1012.2 mb 0.12 in3.0 mm 0.12 in3.0 mm 0.12 in3.0 mm
03:30 AM 45.2°F7.3°C 38.4°F3.6°C 77% 1.0 mph NNE1.6 kmh NNE 3.0 mph4.8 kmh 29.89 in1012.2 mb 0.12 in3.0 mm 0.00 in0.0 mm 0.12 in3.0 mm
03:35 AM 44.9°F7.2°C 38.4°F3.6°C 78% 2.0 mph NNE3.2 kmh NNE 3.0 mph4.8 kmh 29.89 in1012.2 mb 0.12 in3.0 mm 0.00 in0.0 mm 0.12 in3.0 mm
03:40 AM 44.7°F7.1°C 38.2°F3.4°C 78% 2.0 mph NNE3.2 kmh NNE 3.0 mph4.8 kmh 29.89 in1012.2 mb 0.12 in3.0 mm 0.00 in0.0 mm 0.12 in3.0 mm
03:45 AM 44.5°F6.9°C 38.3°F3.5°C 79% 2.0 mph NNE3.2 kmh NNE 3.0 mph4.8 kmh 29.89 in1012.2 mb 0.12 in3.0 mm 0.00 in0.0 mm 0.12 in3.0 mm
03:50 AM 44.3°F6.8°C 38.2°F3.4°C 79% 2.0 mph NNE3.2 kmh NNE 3.0 mph4.8 kmh 29.89 in1012.2 mb 0.12 in3.0 mm 0.00 in0.0 mm 0.12 in3.0 mm
03:55 AM 44.1°F6.7°C 38.3°F3.5°C 80% 2.0 mph NNE3.2 kmh NNE 4.0 mph6.4 kmh 29.88 in1011.9 mb 0.12 in3.0 mm 0.00 in0.0 mm 0.12 in3.0 mm
04:00 AM 44.0°F6.7°C 38.2°F3.4°C 80% Calm Calm 2.0 mph3.2 kmh 29.89 in1012.2 mb 0.12 in3.0 mm 0.00 in0.0 mm 0.12 in3.0 mm
04:05 AM 43.8°F6.6°C 38.0°F3.3°C 80% Calm Calm 2.0 mph3.2 kmh 29.89 in1012.2 mb 0.12 in3.0 mm 0.00 in0.0 mm 0.12 in3.0 mm
04:10 AM 43.6°F6.4°C 37.8°F3.2°C 80% Calm Calm 2.0 mph3.2 kmh 29.89 in1012.2 mb 0.10 in2.5 mm 0.00 in0.0 mm 0.12 in3.0 mm
04:15 AM 43.5°F6.4°C 37.7°F3.2°C 80% 2.0 mph NNE3.2 kmh NNE 5.0 mph8.0 kmh 29.89 in1012.2 mb 0.05 in1.3 mm 0.00 in0.0 mm 0.12 in3.0 mm
04:20 AM 43.5°F6.4°C 37.7°F3.2°C 80% 2.0 mph NNE3.2 kmh NNE 7.0 mph11.3 kmh 29.90 in1012.5 mb 0.01 in0.3 mm 0.00 in0.0 mm 0.12 in3.0 mm
04:25 AM 43.4°F6.3°C 37.6°F3.1°C 80% 2.0 mph NNE3.2 kmh NNE 4.0 mph6.4 kmh 29.90 in1012.5 mb 0.00 in0.0 mm 0.00 in0.0 mm 0.12 in3.0 mm
04:30 AM 43.3°F6.3°C 37.5°F3.1°C 80% 3.0 mph NNE4.8 kmh NNE 5.0 mph8.0 kmh 29.90 in1012.5 mb 0.00 in0.0 mm 0.00 in0.0 mm 0.12 in3.0 mm
04:35 AM 43.4°F6.3°C 37.3°F2.9°C 79% 4.0 mph NNE6.4 kmh NNE 5.0 mph8.0 kmh 29.90 in1012.5 mb 0.00 in0.0 mm 0.00 in0.0 mm 0.12 in3.0 mm
04:40 AM 43.5°F6.4°C 37.4°F3.0°C 79% 2.0 mph NNE3.2 kmh NNE 7.0 mph11.3 kmh 29.90 in1012.5 mb 0.00 in0.0 mm 0.00 in0.0 mm 0.12 in3.0 mm
04:45 AM 43.6°F6.4°C 37.5°F3.1°C 79% 2.0 mph NNE3.2 kmh NNE 3.0 mph4.8 kmh 29.90 in1012.5 mb 0.00 in0.0 mm 0.00 in0.0 mm 0.12 in3.0 mm
04:50 AM 43.6°F6.4°C 37.2°F2.9°C 78% 1.0 mph NNE1.6 kmh NNE 3.0 mph4.8 kmh 29.90 in1012.5 mb 0.00 in0.0 mm 0.00 in0.0 mm 0.12 in3.0 mm
04:55 AM 43.6°F6.4°C 37.2°F2.9°C 78% 2.0 mph NNE3.2 kmh NNE 4.0 mph6.4 kmh 29.90 in1012.5 mb 0.00 in0.0 mm 0.00 in0.0 mm 0.12 in3.0 mm
05:00 AM 43.7°F6.5°C 37.2°F2.9°C 78% 1.0 mph NNE1.6 kmh NNE 3.0 mph4.8 kmh 29.90 in1012.5 mb 0.00 in0.0 mm 0.00 in0.0 mm 0.12 in3.0 mm
05:05 AM 43.6°F6.4°C 36.8°F2.7°C 77% 2.0 mph NNE3.2 kmh NNE 3.0 mph4.8 kmh 29.90 in1012.5 mb 0.00 in0.0 mm 0.00 in0.0 mm 0.12 in3.0 mm
05:10 AM 43.5°F6.4°C 36.7°F2.6°C 77% 1.0 mph NNE1.6 kmh NNE 4.0 mph6.4 kmh 29.90 in1012.5 mb 0.00 in0.0 mm 0.00 in0.0 mm 0.12 in3.0 mm
05:15 AM 43.5°F6.4°C 36.7°F2.6°C 77% 2.0 mph NNE3.2 kmh NNE 4.0 mph6.4 kmh 29.90 in1012.5 mb 0.00 in0.0 mm 0.00 in0.0 mm 0.12 in3.0 mm
05:20 AM 43.7°F6.5°C 36.9°F2.7°C 77% 2.0 mph NNE3.2 kmh NNE 7.0 mph11.3 kmh 29.91 in1012.9 mb 0.00 in0.0 mm 0.00 in0.0 mm 0.12 in3.0 mm
05:25 AM 44.0°F6.7°C 37.2°F2.9°C 77% 2.0 mph NNE3.2 kmh NNE 4.0 mph6.4 kmh 29.91 in1012.9 mb 0.00 in0.0 mm 0.00 in0.0 mm 0.12 in3.0 mm
05:30 AM 44.3°F6.8°C 37.5°F3.1°C 77% 1.0 mph NNE1.6 kmh NNE 7.0 mph11.3 kmh 29.91 in1012.9 mb 0.00 in0.0 mm 0.00 in0.0 mm 0.12 in3.0 mm
05:35 AM 44.7°F7.1°C 37.6°F3.1°C 76% 3.0 mph NNE4.8 kmh NNE 8.0 mph12.9 kmh 29.91 in1012.9 mb 0.00 in0.0 mm 0.00 in0.0 mm 0.12 in3.0 mm
05:40 AM 45.0°F7.2°C 37.8°F3.2°C 76% 3.0 mph NNE4.8 kmh NNE 8.0 mph12.9 kmh 29.91 in1012.9 mb 0.00 in0.0 mm 0.00 in0.0 mm 0.12 in3.0 mm
05:45 AM 45.1°F7.3°C 37.9°F3.3°C 76% 4.0 mph NNE6.4 kmh NNE 8.0 mph12.9 kmh 29.91 in1012.9 mb 0.00 in0.0 mm 0.00 in0.0 mm 0.12 in3.0 mm
05:50 AM 45.2°F7.3°C 37.7°F3.2°C 75% 2.0 mph NNE3.2 kmh NNE 10.0 mph16.1 kmh 29.92 in1013.2 mb 0.00 in0.0 mm 0.00 in0.0 mm 0.12 in3.0 mm
05:55 AM 45.2°F7.3°C 37.7°F3.2°C 75% 3.0 mph NNE4.8 kmh NNE 9.0 mph14.5 kmh 29.92 in1013.2 mb 0.00 in0.0 mm 0.00 in0.0 mm 0.12 in3.0 mm
06:00 AM 45.3°F7.4°C 37.8°F3.2°C 75% 8.0 mph NNE12.9 kmh NNE 10.0 mph16.1 kmh 29.92 in1013.2 mb 0.00 in0.0 mm 0.00 in0.0 mm 0.12 in3.0 mm
06:05 AM 45.3°F7.4°C 37.5°F3.1°C 74% 3.0 mph WSW4.8 kmh WSW 13.0 mph20.9 kmh 29.92 in1013.2 mb 0.00 in0.0 mm 0.00 in0.0 mm 0.12 in3.0 mm
06:10 AM 45.2°F7.3°C 37.4°F3.0°C 74% 4.0 mph W6.4 kmh W 8.0 mph12.9 kmh 29.93 in1013.5 mb 0.00 in0.0 mm 0.00 in0.0 mm 0.12 in3.0 mm
06:15 AM 45.0°F7.2°C 37.2°F2.9°C 74% 1.0 mph W1.6 kmh W 9.0 mph14.5 kmh 29.93 in1013.5 mb 0.00 in0.0 mm 0.00 in0.0 mm 0.12 in3.0 mm
06:20 AM 45.0°F7.2°C 36.8°F2.7°C 73% 5.0 mph SW8.0 kmh SW 10.0 mph16.1 kmh 29.93 in1013.5 mb 0.00 in0.0 mm 0.00 in0.0 mm 0.12 in3.0 mm
06:25 AM 45.0°F7.2°C 36.8°F2.7°C 73% 4.0 mph W6.4 kmh W 9.0 mph14.5 kmh 29.94 in1013.9 mb 0.00 in0.0 mm 0.00 in0.0 mm 0.12 in3.0 mm
06:30 AM 45.0°F7.2°C 36.8°F2.7°C 73% 6.0 mph W9.7 kmh W 8.0 mph12.9 kmh 29.94 in1013.9 mb 0.00 in0.0 mm 0.00 in0.0 mm 0.12 in3.0 mm
06:35 AM 44.9°F7.2°C 36.7°F2.6°C 73% 2.0 mph W3.2 kmh W 10.0 mph16.1 kmh 29.94 in1013.9 mb 0.00 in0.0 mm 0.00 in0.0 mm 0.12 in3.0 mm
06:40 AM 44.9°F7.2°C 36.7°F2.6°C 73% 3.0 mph WSW4.8 kmh WSW 10.0 mph16.1 kmh 29.94 in1013.9 mb 0.00 in0.0 mm 0.00 in0.0 mm 0.12 in3.0 mm
06:45 AM 45.0°F7.2°C 36.5°F2.5°C 72% 3.0 mph WSW4.8 kmh WSW 9.0 mph14.5 kmh 29.94 in1013.9 mb 0.00 in0.0 mm 0.00 in0.0 mm 0.12 in3.0 mm
06:50 AM 45.1°F7.3°C 36.6°F2.6°C 72% 11.0 mph SW17.7 kmh SW 8.0 mph12.9 kmh 29.94 in1013.9 mb 0.00 in0.0 mm 0.00 in0.0 mm 0.12 in3.0 mm
06:55 AM 45.2°F7.3°C 36.3°F2.4°C 71% 6.0 mph WSW9.7 kmh WSW 12.0 mph19.3 kmh 29.95 in1014.2 mb 0.00 in0.0 mm 0.00 in0.0 mm 0.12 in3.0 mm
07:00 AM 45.2°F7.3°C 36.3°F2.4°C 71% 4.0 mph W6.4 kmh W 8.0 mph12.9 kmh 29.95 in1014.2 mb 0.00 in0.0 mm 0.00 in0.0 mm 0.12 in3.0 mm
07:05 AM 45.3°F7.4°C 36.1°F2.3°C 70% 4.0 mph WSW6.4 kmh WSW 9.0 mph14.5 kmh 29.95 in1014.2 mb 0.00 in0.0 mm 0.00 in0.0 mm 0.12 in3.0 mm
07:10 AM 45.3°F7.4°C 35.7°F2.1°C 69% 2.0 mph W3.2 kmh W 9.0 mph14.5 kmh 29.95 in1014.2 mb 0.00 in0.0 mm 0.00 in0.0 mm 0.12 in3.0 mm
07:15 AM 45.4°F7.4°C 35.4°F1.9°C 68% 6.0 mph W9.7 kmh W 10.0 mph16.1 kmh 29.96 in1014.6 mb 0.00 in0.0 mm 0.00 in0.0 mm 0.12 in3.0 mm
07:20 AM 45.3°F7.4°C 35.3°F1.8°C 68% 4.0 mph W6.4 kmh W 9.0 mph14.5 kmh 29.96 in1014.6 mb 0.00 in0.0 mm 0.00 in0.0 mm 0.12 in3.0 mm
07:25 AM 45.1°F7.3°C 35.1°F1.7°C 68% 7.0 mph SW11.3 kmh SW 8.0 mph12.9 kmh 29.96 in1014.6 mb 0.00 in0.0 mm 0.00 in0.0 mm 0.12 in3.0 mm
07:30 AM 44.7°F7.1°C 35.1°F1.7°C 69% 2.0 mph W3.2 kmh W 9.0 mph14.5 kmh 29.97 in1014.9 mb 0.00 in0.0 mm 0.00 in0.0 mm 0.12 in3.0 mm
07:35 AM 44.5°F6.9°C 35.3°F1.8°C 70% 3.0 mph W4.8 kmh W 9.0 mph14.5 kmh 29.97 in1014.9 mb 0.00 in0.0 mm 0.00 in0.0 mm 0.12 in3.0 mm
07:40 AM 44.3°F6.8°C 35.1°F1.7°C 70% 5.0 mph SW8.0 kmh SW 9.0 mph14.5 kmh 29.97 in1014.9 mb 0.00 in0.0 mm 0.00 in0.0 mm 0.12 in3.0 mm
07:45 AM 44.1°F6.7°C 35.3°F1.8°C 71% 3.0 mph WSW4.8 kmh WSW 7.0 mph11.3 kmh 29.98 in1015.2 mb 0.00 in0.0 mm 0.00 in0.0 mm 0.12 in3.0 mm
07:50 AM 44.0°F6.7°C 35.2°F1.8°C 71% 9.0 mph WSW14.5 kmh WSW 9.0 mph14.5 kmh 29.98 in1015.2 mb 0.00 in0.0 mm 0.00 in0.0 mm 0.12 in3.0 mm
07:55 AM 44.1°F6.7°C 35.3°F1.8°C 71% 7.0 mph WSW11.3 kmh WSW 10.0 mph16.1 kmh 29.98 in1015.2 mb 0.00 in0.0 mm 0.00 in0.0 mm 0.12 in3.0 mm
08:00 AM 44.2°F6.8°C 35.4°F1.9°C 71% 5.0 mph WSW8.0 kmh WSW 8.0 mph12.9 kmh 29.98 in1015.2 mb 0.00 in0.0 mm 0.00 in0.0 mm 0.12 in3.0 mm
08:05 AM 44.1°F6.7°C 35.3°F1.8°C 71% 3.0 mph WSW4.8 kmh WSW 8.0 mph12.9 kmh 29.99 in1015.6 mb 0.00 in0.0 mm 0.00 in0.0 mm 0.12 in3.0 mm
08:10 AM 44.2°F6.8°C 35.4°F1.9°C 71% 2.0 mph WSW3.2 kmh WSW 7.0 mph11.3 kmh 29.99 in1015.6 mb 0.00 in0.0 mm 0.00 in0.0 mm 0.12 in3.0 mm
08:15 AM 44.3°F6.8°C 35.4°F1.9°C 71% 2.0 mph WSW3.2 kmh WSW 4.0 mph6.4 kmh 29.99 in1015.6 mb 0.00 in0.0 mm 0.00 in0.0 mm 0.12 in3.0 mm
08:20 AM 44.5°F6.9°C 35.3°F1.8°C 70% Calm Calm 5.0 mph8.0 kmh 29.99 in1015.6 mb 0.00 in0.0 mm 0.00 in0.0 mm 0.12 in3.0 mm
08:25 AM 44.5°F6.9°C 35.3°F1.8°C 70% Calm Calm 3.0 mph4.8 kmh 30.00 in1015.9 mb 0.00 in0.0 mm 0.00 in0.0 mm 0.12 in3.0 mm
08:30 AM 44.4°F6.9°C 35.2°F1.8°C 70% 1.0 mph WSW1.6 kmh WSW 3.0 mph4.8 kmh 30.00 in1015.9 mb 0.00 in0.0 mm 0.00 in0.0 mm 0.12 in3.0 mm
08:35 AM 44.1°F6.7°C 34.9°F1.6°C 70% 1.0 mph WSW1.6 kmh WSW 4.0 mph6.4 kmh 30.00 in1015.9 mb 0.00 in0.0 mm 0.00 in0.0 mm 0.12 in3.0 mm
08:40 AM 43.9°F6.6°C 35.1°F1.7°C 71% 3.0 mph WSW4.8 kmh WSW 3.0 mph4.8 kmh 30.00 in1015.9 mb 0.00 in0.0 mm 0.00 in0.0 mm 0.12 in3.0 mm
08:45 AM 43.8°F6.6°C 35.0°F1.7°C 71% 1.0 mph WSW1.6 kmh WSW 3.0 mph4.8 kmh 30.01 in1016.3 mb 0.00 in0.0 mm 0.00 in0.0 mm 0.12 in3.0 mm
08:50 AM 43.8°F6.6°C 35.3°F1.8°C 72% 1.0 mph WSW1.6 kmh WSW 5.0 mph8.0 kmh 30.01 in1016.3 mb 0.00 in0.0 mm 0.00 in0.0 mm 0.12 in3.0 mm
08:55 AM 43.7°F6.5°C 35.2°F1.8°C 72% 1.0 mph WSW1.6 kmh WSW 5.0 mph8.0 kmh 30.01 in1016.3 mb 0.00 in0.0 mm 0.00 in0.0 mm 0.12 in3.0 mm
09:00 AM 43.6°F6.4°C 35.1°F1.7°C 72% 3.0 mph WSW4.8 kmh WSW 5.0 mph8.0 kmh 30.02 in1016.6 mb 0.00 in0.0 mm 0.00 in0.0 mm 0.12 in3.0 mm
09:05 AM 43.3°F6.3°C 34.8°F1.6°C 72% 1.0 mph WSW1.6 kmh WSW 3.0 mph4.8 kmh 30.02 in1016.6 mb 0.00 in0.0 mm 0.00 in0.0 mm 0.12 in3.0 mm
09:10 AM 43.0°F6.1°C 34.9°F1.6°C 73% 3.0 mph W4.8 kmh W 7.0 mph11.3 kmh 30.02 in1016.6 mb 0.00 in0.0 mm 0.00 in0.0 mm 0.12 in3.0 mm
09:15 AM 42.9°F6.1°C 34.8°F1.6°C 73% 1.0 mph WSW1.6 kmh WSW 6.0 mph9.7 kmh 30.03 in1016.9 mb 0.00 in0.0 mm 0.00 in0.0 mm 0.12 in3.0 mm
09:20 AM 42.9°F6.1°C 35.1°F1.7°C 74% 1.0 mph NW1.6 kmh NW 5.0 mph8.0 kmh 30.03 in1016.9 mb 0.00 in0.0 mm 0.00 in0.0 mm 0.12 in3.0 mm
09:25 AM 43.3°F6.3°C 35.5°F1.9°C 74% 1.0 mph NW1.6 kmh NW 4.0 mph6.4 kmh 30.03 in1016.9 mb 0.00 in0.0 mm 0.00 in0.0 mm 0.12 in3.0 mm
09:30 AM 43.5°F6.4°C 35.7°F2.1°C 74% Calm Calm 4.0 mph6.4 kmh 30.04 in1017.3 mb 0.00 in0.0 mm 0.00 in0.0 mm 0.12 in3.0 mm
09:35 AM 43.9°F6.6°C 36.1°F2.3°C 74% Calm Calm 2.0 mph3.2 kmh 30.04 in1017.3 mb 0.00 in0.0 mm 0.00 in0.0 mm 0.12 in3.0 mm
09:40 AM 44.4°F6.9°C 36.6°F2.6°C 74% 2.0 mph NW3.2 kmh NW 2.0 mph3.2 kmh 30.04 in1017.3 mb 0.00 in0.0 mm 0.00 in0.0 mm 0.12 in3.0 mm
09:45 AM 45.0°F7.2°C 36.8°F2.7°C 73% 2.0 mph NW3.2 kmh NW 2.0 mph3.2 kmh 30.05 in1017.6 mb 0.00 in0.0 mm 0.00 in0.0 mm 0.12 in3.0 mm
09:50 AM 45.5°F7.5°C 37.3°F2.9°C 73% 1.0 mph NW1.6 kmh NW 2.0 mph3.2 kmh 30.05 in1017.6 mb 0.00 in0.0 mm 0.00 in0.0 mm 0.12 in3.0 mm
09:55 AM 45.9°F7.7°C 37.3°F2.9°C 72% Calm Calm 4.0 mph6.4 kmh 30.05 in1017.6 mb 0.00 in0.0 mm 0.00 in0.0 mm 0.12 in3.0 mm
10:00 AM 46.4°F8.0°C 37.5°F3.1°C 71% 1.0 mph NW1.6 kmh NW 3.0 mph4.8 kmh 30.05 in1017.6 mb 0.00 in0.0 mm 0.00 in0.0 mm 0.12 in3.0 mm
10:05 AM 46.8°F8.2°C 37.1°F2.8°C 69% Calm Calm 5.0 mph8.0 kmh 30.06 in1017.9 mb 0.00 in0.0 mm 0.00 in0.0 mm 0.12 in3.0 mm
10:10 AM 47.0°F8.3°C 37.3°F2.9°C 69% Calm Calm 5.0 mph8.0 kmh 30.06 in1017.9 mb 0.00 in0.0 mm 0.00 in0.0 mm 0.12 in3.0 mm
10:15 AM 47.0°F8.3°C 36.9°F2.7°C 68% 3.0 mph NW4.8 kmh NW 4.0 mph6.4 kmh 30.06 in1017.9 mb 0.00 in0.0 mm 0.00 in0.0 mm 0.12 in3.0 mm
10:20 AM 47.1°F8.4°C 37.0°F2.8°C 68% 1.0 mph NW1.6 kmh NW 5.0 mph8.0 kmh 30.06 in1017.9 mb 0.00 in0.0 mm 0.00 in0.0 mm 0.12 in3.0 mm
10:25 AM 47.4°F8.6°C 37.3°F2.9°C 68% 1.0 mph NW1.6 kmh NW 4.0 mph6.4 kmh 30.06 in1017.9 mb 0.00 in0.0 mm 0.00 in0.0 mm 0.12 in3.0 mm
10:30 AM 47.7°F8.7°C 37.2°F2.9°C 67% 3.0 mph NW4.8 kmh NW 4.0 mph6.4 kmh 30.06 in1017.9 mb 0.00 in0.0 mm 0.00 in0.0 mm 0.12 in3.0 mm
10:35 AM 48.0°F8.9°C 37.5°F3.1°C 67% Calm Calm 4.0 mph6.4 kmh 30.06 in1017.9 mb 0.00 in0.0 mm 0.00 in0.0 mm 0.12 in3.0 mm
10:40 AM 48.2°F9.0°C 37.3°F2.9°C 66% 1.0 mph NW1.6 kmh NW 3.0 mph4.8 kmh 30.07 in1018.3 mb 0.00 in0.0 mm 0.00 in0.0 mm 0.12 in3.0 mm
10:45 AM 48.4°F9.1°C 37.1°F2.8°C 65% 1.0 mph NW1.6 kmh NW 2.0 mph3.2 kmh 30.07 in1018.3 mb 0.00 in0.0 mm 0.00 in0.0 mm 0.12 in3.0 mm
10:50 AM 48.7°F9.3°C 37.4°F3.0°C 65% Calm Calm 2.0 mph3.2 kmh 30.07 in1018.3 mb 0.00 in0.0 mm 0.00 in0.0 mm 0.12 in3.0 mm
10:55 AM 49.0°F9.4°C 37.3°F2.9°C 64% Calm Calm 2.0 mph3.2 kmh 30.07 in1018.3 mb 0.00 in0.0 mm 0.00 in0.0 mm 0.12 in3.0 mm
11:00 AM 49.3°F9.6°C 37.6°F3.1°C 64% Calm Calm 2.0 mph3.2 kmh 30.07 in1018.3 mb 0.00 in0.0 mm 0.00 in0.0 mm 0.12 in3.0 mm
11:05 AM 49.5°F9.7°C 37.8°F3.2°C 64% 1.0 mph NW1.6 kmh NW 2.0 mph3.2 kmh 30.07 in1018.3 mb 0.00 in0.0 mm 0.00 in0.0 mm 0.12 in3.0 mm
11:10 AM 49.5°F9.7°C 37.4°F3.0°C 63% 3.0 mph NW4.8 kmh NW 3.0 mph4.8 kmh 30.07 in1018.3 mb 0.00 in0.0 mm 0.00 in0.0 mm 0.12 in3.0 mm
11:15 AM 49.6°F9.8°C 37.5°F3.1°C 63% 2.0 mph NW3.2 kmh NW 3.0 mph4.8 kmh 30.07 in1018.3 mb 0.00 in0.0 mm 0.00 in0.0 mm 0.12 in3.0 mm
11:20 AM 49.4°F9.7°C 37.3°F2.9°C 63% Calm Calm 3.0 mph4.8 kmh 30.07 in1018.3 mb 0.00 in0.0 mm 0.00 in0.0 mm 0.12 in3.0 mm
11:25 AM 49.5°F9.7°C 37.4°F3.0°C 63% 1.0 mph NW1.6 kmh NW 2.0 mph3.2 kmh 30.07 in1018.3 mb 0.00 in0.0 mm 0.00 in0.0 mm 0.12 in3.0 mm
11:30 AM 49.6°F9.8°C 37.1°F2.8°C 62% 1.0 mph NW1.6 kmh NW 3.0 mph4.8 kmh 30.07 in1018.3 mb 0.00 in0.0 mm 0.00 in0.0 mm 0.12 in3.0 mm
11:35 AM 49.4°F9.7°C 36.5°F2.5°C 61% 2.0 mph NW3.2 kmh NW 3.0 mph4.8 kmh 30.07 in1018.3 mb 0.00 in0.0 mm 0.00 in0.0 mm 0.12 in3.0 mm
11:40 AM 49.4°F9.7°C 37.3°F2.9°C 63% 1.0 mph NW1.6 kmh NW 3.0 mph4.8 kmh 30.07 in1018.3 mb 0.00 in0.0 mm 0.00 in0.0 mm 0.12 in3.0 mm
11:45 AM 49.3°F9.6°C 36.8°F2.7°C 62% 2.0 mph NW3.2 kmh NW 3.0 mph4.8 kmh 30.07 in1018.3 mb 0.00 in0.0 mm 0.00 in0.0 mm 0.12 in3.0 mm
11:50 AM 49.3°F9.6°C 36.8°F2.7°C 62% 2.0 mph N3.2 kmh N 3.0 mph4.8 kmh 30.07 in1018.3 mb 0.00 in0.0 mm 0.00 in0.0 mm 0.12 in3.0 mm
11:55 AM 49.2°F9.6°C 36.7°F2.6°C 62% 2.0 mph N3.2 kmh N 3.0 mph4.8 kmh 30.07 in1018.3 mb 0.00 in0.0 mm 0.00 in0.0 mm 0.12 in3.0 mm
12:00 PM 49.1°F9.5°C 36.6°F2.6°C 62% 2.0 mph N3.2 kmh N 3.0 mph4.8 kmh 30.07 in1018.3 mb 0.00 in0.0 mm 0.00 in0.0 mm 0.12 in3.0 mm
12:05 PM 49.3°F9.6°C 36.8°F2.7°C 62% 1.0 mph N1.6 kmh N 2.0 mph3.2 kmh 30.07 in1018.3 mb 0.00 in0.0 mm 0.00 in0.0 mm 0.12 in3.0 mm
12:10 PM 49.6°F9.8°C 37.5°F3.1°C 63% 2.0 mph N3.2 kmh N 2.0 mph3.2 kmh 30.07 in1018.3 mb 0.00 in0.0 mm 0.00 in0.0 mm 0.12 in3.0 mm
12:15 PM 49.5°F9.7°C 38.2°F3.4°C 65% 1.0 mph N1.6 kmh N 3.0 mph4.8 kmh 30.07 in1018.3 mb 0.00 in0.0 mm 0.00 in0.0 mm 0.12 in3.0 mm
12:20 PM 49.6°F9.8°C 38.3°F3.5°C 65% Calm Calm 2.0 mph3.2 kmh 30.08 in1018.6 mb 0.00 in0.0 mm 0.00 in0.0 mm 0.12 in3.0 mm
12:25 PM 49.9°F9.9°C 38.6°F3.7°C 65% Calm Calm 2.0 mph3.2 kmh 30.08 in1018.6 mb 0.00 in0.0 mm 0.00 in0.0 mm 0.12 in3.0 mm
12:30 PM 49.8°F9.9°C 38.1°F3.4°C 64% 1.0 mph N1.6 kmh N 3.0 mph4.8 kmh 30.08 in1018.6 mb 0.00 in0.0 mm 0.00 in0.0 mm 0.12 in3.0 mm
12:35 PM 49.6°F9.8°C 37.9°F3.3°C 64% Calm Calm 3.0 mph4.8 kmh 30.08 in1018.6 mb 0.00 in0.0 mm 0.00 in0.0 mm 0.12 in3.0 mm
12:40 PM 49.6°F9.8°C 37.9°F3.3°C 64% Calm Calm 3.0 mph4.8 kmh 30.08 in1018.6 mb 0.00 in0.0 mm 0.00 in0.0 mm 0.12 in3.0 mm
12:45 PM 49.6°F9.8°C 37.5°F3.1°C 63% Calm Calm 2.0 mph3.2 kmh 30.08 in1018.6 mb 0.00 in0.0 mm 0.00 in0.0 mm 0.12 in3.0 mm
12:50 PM 49.8°F9.9°C 38.1°F3.4°C 64% 2.0 mph N3.2 kmh N 3.0 mph4.8 kmh 30.08 in1018.6 mb 0.00 in0.0 mm 0.00 in0.0 mm 0.12 in3.0 mm
12:55 PM 50.1°F10.1°C 38.4°F3.6°C 64% 1.0 mph N1.6 kmh N 3.0 mph4.8 kmh 30.08 in1018.6 mb 0.00 in0.0 mm 0.00 in0.0 mm 0.12 in3.0 mm
01:00 PM 50.4°F10.2°C 38.2°F3.4°C 63% 1.0 mph N1.6 kmh N 3.0 mph4.8 kmh 30.08 in1018.6 mb 0.00 in0.0 mm 0.00 in0.0 mm 0.12 in3.0 mm
01:05 PM 50.7°F10.4°C 38.1°F3.4°C 62% Calm Calm 4.0 mph6.4 kmh 30.08 in1018.6 mb 0.00 in0.0 mm 0.00 in0.0 mm 0.12 in3.0 mm
01:10 PM 51.0°F10.6°C 38.4°F3.6°C 62% 3.0 mph N4.8 kmh N 4.0 mph6.4 kmh 30.08 in1018.6 mb 0.00 in0.0 mm 0.00 in0.0 mm 0.12 in3.0 mm
01:15 PM 51.1°F10.6°C 38.9°F3.8°C 63% 2.0 mph N3.2 kmh N 4.0 mph6.4 kmh 30.07 in1018.3 mb 0.00 in0.0 mm 0.00 in0.0 mm 0.12 in3.0 mm
01:20 PM 51.2°F10.7°C 39.4°F4.1°C 64% 2.0 mph N3.2 kmh N 5.0 mph8.0 kmh 30.07 in1018.3 mb 0.00 in0.0 mm 0.00 in0.0 mm 0.12 in3.0 mm
01:25 PM 51.1°F10.6°C 39.3°F4.1°C 64% 3.0 mph N4.8 kmh N 4.0 mph6.4 kmh 30.08 in1018.6 mb 0.00 in0.0 mm 0.00 in0.0 mm 0.12 in3.0 mm
01:30 PM 51.0°F10.6°C 39.2°F4.0°C 64% 3.0 mph N4.8 kmh N 4.0 mph6.4 kmh 30.08 in1018.6 mb 0.00 in0.0 mm 0.00 in0.0 mm 0.12 in3.0 mm
01:35 PM 51.1°F10.6°C 39.3°F4.1°C 64% 2.0 mph N3.2 kmh N 4.0 mph6.4 kmh 30.08 in1018.6 mb 0.00 in0.0 mm 0.00 in0.0 mm 0.12 in3.0 mm
01:40 PM 51.1°F10.6°C 38.9°F3.8°C 63% 4.0 mph N6.4 kmh N 4.0 mph6.4 kmh 30.08 in1018.6 mb 0.00 in0.0 mm 0.00 in0.0 mm 0.12 in3.0 mm
01:45 PM 51.1°F10.6°C 38.9°F3.8°C 63% 4.0 mph N6.4 kmh N 5.0 mph8.0 kmh 30.08 in1018.6 mb 0.00 in0.0 mm 0.00 in0.0 mm 0.12 in3.0 mm
01:50 PM 51.0°F10.6°C 39.2°F4.0°C 64% 4.0 mph N6.4 kmh N 5.0 mph8.0 kmh 30.08 in1018.6 mb 0.00 in0.0 mm 0.00 in0.0 mm 0.12 in3.0 mm
01:55 PM 50.8°F10.4°C 39.0°F3.9°C 64% 3.0 mph N4.8 kmh N 4.0 mph6.4 kmh 30.08 in1018.6 mb 0.00 in0.0 mm 0.00 in0.0 mm 0.12 in3.0 mm
02:00 PM 50.7°F10.4°C 39.3°F4.1°C 65% Calm Calm 4.0 mph6.4 kmh 30.08 in1018.6 mb 0.00 in0.0 mm 0.00 in0.0 mm 0.12 in3.0 mm
02:05 PM 50.8°F10.4°C 39.4°F4.1°C 65% 1.0 mph N1.6 kmh N 5.0 mph8.0 kmh 30.08 in1018.6 mb 0.00 in0.0 mm 0.00 in0.0 mm 0.12 in3.0 mm
02:10 PM 51.1°F10.6°C 39.3°F4.1°C 64% 1.0 mph N1.6 kmh N 4.0 mph6.4 kmh 30.08 in1018.6 mb 0.00 in0.0 mm 0.00 in0.0 mm 0.12 in3.0 mm
02:15 PM 51.1°F10.6°C 38.5°F3.6°C 62% 2.0 mph N3.2 kmh N 5.0 mph8.0 kmh 30.08 in1018.6 mb 0.00 in0.0 mm 0.00 in0.0 mm 0.12 in3.0 mm
02:20 PM 50.9°F10.5°C 38.3°F3.5°C 62% 2.0 mph NNE3.2 kmh NNE 8.0 mph12.9 kmh 30.08 in1018.6 mb 0.00 in0.0 mm 0.00 in0.0 mm 0.12 in3.0 mm
02:25 PM 50.7°F10.4°C 38.1°F3.4°C 62% 3.0 mph NNE4.8 kmh NNE 8.0 mph12.9 kmh 30.08 in1018.6 mb 0.00 in0.0 mm 0.00 in0.0 mm 0.12 in3.0 mm
02:30 PM 50.7°F10.4°C 38.1°F3.4°C 62% 4.0 mph NNE6.4 kmh NNE 8.0 mph12.9 kmh 30.09 in1019.0 mb 0.00 in0.0 mm 0.00 in0.0 mm 0.12 in3.0 mm
02:35 PM 50.7°F10.4°C 38.5°F3.6°C 63% 3.0 mph NNE4.8 kmh NNE 8.0 mph12.9 kmh 30.09 in1019.0 mb 0.00 in0.0 mm 0.00 in0.0 mm 0.12 in3.0 mm
02:40 PM 50.6°F10.3°C 38.4°F3.6°C 63% 3.0 mph NNE4.8 kmh NNE 7.0 mph11.3 kmh 30.09 in1019.0 mb 0.00 in0.0 mm 0.00 in0.0 mm 0.12 in3.0 mm
02:45 PM 50.6°F10.3°C 38.8°F3.8°C 64% 2.0 mph NNE3.2 kmh NNE 5.0 mph8.0 kmh 30.09 in1019.0 mb 0.00 in0.0 mm 0.00 in0.0 mm 0.12 in3.0 mm
02:50 PM 50.5°F10.3°C 38.7°F3.7°C 64% 4.0 mph NNE6.4 kmh NNE 5.0 mph8.0 kmh 30.09 in1019.0 mb 0.00 in0.0 mm 0.00 in0.0 mm 0.12 in3.0 mm
02:55 PM 50.2°F10.1°C 38.8°F3.8°C 65% 2.0 mph NNE3.2 kmh NNE 8.0 mph12.9 kmh 30.09 in1019.0 mb 0.00 in0.0 mm 0.00 in0.0 mm 0.12 in3.0 mm
03:00 PM 50.1°F10.1°C 38.7°F3.7°C 65% Calm Calm 7.0 mph11.3 kmh 30.09 in1019.0 mb 0.00 in0.0 mm 0.00 in0.0 mm 0.12 in3.0 mm
03:05 PM 50.3°F10.2°C 39.3°F4.1°C 66% 3.0 mph NNE4.8 kmh NNE 4.0 mph6.4 kmh 30.09 in1019.0 mb 0.00 in0.0 mm 0.00 in0.0 mm 0.12 in3.0 mm
03:10 PM 50.3°F10.2°C 38.9°F3.8°C 65% Calm Calm 5.0 mph8.0 kmh 30.09 in1019.0 mb 0.00 in0.0 mm 0.00 in0.0 mm 0.12 in3.0 mm
03:15 PM 50.4°F10.2°C 38.6°F3.7°C 64% 4.0 mph NNE6.4 kmh NNE 4.0 mph6.4 kmh 30.09 in1019.0 mb 0.00 in0.0 mm 0.00 in0.0 mm 0.12 in3.0 mm
03:20 PM 50.3°F10.2°C 38.1°F3.4°C 63% 4.0 mph NNE6.4 kmh NNE 7.0 mph11.3 kmh 30.09 in1019.0 mb 0.00 in0.0 mm 0.00 in0.0 mm 0.12 in3.0 mm
03:25 PM 50.2°F10.1°C 38.0°F3.3°C 63% 2.0 mph NNE3.2 kmh NNE 4.0 mph6.4 kmh 30.09 in1019.0 mb 0.00 in0.0 mm 0.00 in0.0 mm 0.12 in3.0 mm
03:35 PM 50.0°F10.0°C 38.3°F3.5°C 64% 2.0 mph NNE3.2 kmh NNE 5.0 mph8.0 kmh 30.09 in1019.0 mb 0.00 in0.0 mm 0.00 in0.0 mm 0.12 in3.0 mm
03:40 PM 50.0°F10.0°C 38.3°F3.5°C 64% 1.0 mph NNE1.6 kmh NNE 5.0 mph8.0 kmh 30.09 in1019.0 mb 0.00 in0.0 mm 0.00 in0.0 mm 0.12 in3.0 mm
03:45 PM 49.8°F9.9°C 37.7°F3.2°C 63% 2.0 mph NNE3.2 kmh NNE 7.0 mph11.3 kmh 30.09 in1019.0 mb 0.00 in0.0 mm 0.00 in0.0 mm 0.12 in3.0 mm
03:50 PM 49.6°F9.8°C 37.5°F3.1°C 63% 1.0 mph NNE1.6 kmh NNE 5.0 mph8.0 kmh 30.09 in1019.0 mb 0.00 in0.0 mm 0.00 in0.0 mm 0.12 in3.0 mm
03:55 PM 49.5°F9.7°C 37.4°F3.0°C 63% 1.0 mph NNE1.6 kmh NNE 5.0 mph8.0 kmh 30.09 in1019.0 mb 0.00 in0.0 mm 0.00 in0.0 mm 0.12 in3.0 mm
04:00 PM 49.4°F9.7°C 37.3°F2.9°C 63% 4.0 mph NNE6.4 kmh NNE 5.0 mph8.0 kmh 30.09 in1019.0 mb 0.00 in0.0 mm 0.00 in0.0 mm 0.12 in3.0 mm
04:05 PM 49.3°F9.6°C 37.6°F3.1°C 64% 1.0 mph NNE1.6 kmh NNE 5.0 mph8.0 kmh 30.09 in1019.0 mb 0.00 in0.0 mm 0.00 in0.0 mm 0.12 in3.0 mm
04:10 PM 49.2°F9.6°C 37.5°F3.1°C 64% Calm Calm 5.0 mph8.0 kmh 30.09 in1019.0 mb 0.00 in0.0 mm 0.00 in0.0 mm 0.12 in3.0 mm
04:15 PM 49.1°F9.5°C 37.8°F3.2°C 65% 2.0 mph NNE3.2 kmh NNE 7.0 mph11.3 kmh 30.10 in1019.3 mb 0.00 in0.0 mm 0.00 in0.0 mm 0.12 in3.0 mm
04:20 PM 48.9°F9.4°C 38.0°F3.3°C 66% 1.0 mph NNE1.6 kmh NNE 5.0 mph8.0 kmh 30.09 in1019.0 mb 0.00 in0.0 mm 0.00 in0.0 mm 0.12 in3.0 mm
04:25 PM 48.7°F9.3°C 37.8°F3.2°C 66% 4.0 mph NNE6.4 kmh NNE 4.0 mph6.4 kmh 30.09 in1019.0 mb 0.00 in0.0 mm 0.00 in0.0 mm 0.12 in3.0 mm
04:30 PM 48.4°F9.1°C 37.9°F3.3°C 67% 2.0 mph NNE3.2 kmh NNE 7.0 mph11.3 kmh 30.10 in1019.3 mb 0.00 in0.0 mm 0.00 in0.0 mm 0.12 in3.0 mm
04:35 PM 48.0°F8.9°C 37.5°F3.1°C 67% 3.0 mph NNE4.8 kmh NNE 7.0 mph11.3 kmh 30.10 in1019.3 mb 0.00 in0.0 mm 0.00 in0.0 mm 0.12 in3.0 mm
04:40 PM 47.6°F8.7°C 37.1°F2.8°C 67% 3.0 mph NNE4.8 kmh NNE 4.0 mph6.4 kmh 30.10 in1019.3 mb 0.00 in0.0 mm 0.00 in0.0 mm 0.12 in3.0 mm
04:45 PM 47.3°F8.5°C 36.9°F2.7°C 67% Calm Calm 4.0 mph6.4 kmh 30.10 in1019.3 mb 0.00 in0.0 mm 0.00 in0.0 mm 0.12 in3.0 mm
04:50 PM 47.0°F8.3°C 36.6°F2.6°C 67% 2.0 mph NNE3.2 kmh NNE 5.0 mph8.0 kmh 30.09 in1019.0 mb 0.00 in0.0 mm 0.00 in0.0 mm 0.12 in3.0 mm
04:55 PM 46.7°F8.2°C 36.3°F2.4°C 67% 2.0 mph NNE3.2 kmh NNE 5.0 mph8.0 kmh 30.09 in1019.0 mb 0.00 in0.0 mm 0.00 in0.0 mm 0.12 in3.0 mm
05:00 PM 46.4°F8.0°C 36.4°F2.4°C 68% 3.0 mph NNE4.8 kmh NNE 7.0 mph11.3 kmh 30.09 in1019.0 mb 0.00 in0.0 mm 0.00 in0.0 mm 0.12 in3.0 mm
05:05 PM 46.2°F7.9°C 36.2°F2.3°C 68% 3.0 mph NNE4.8 kmh NNE 7.0 mph11.3 kmh 30.09 in1019.0 mb 0.00 in0.0 mm 0.00 in0.0 mm 0.12 in3.0 mm
05:10 PM 46.0°F7.8°C 36.0°F2.2°C 68% 2.0 mph NNE3.2 kmh NNE 7.0 mph11.3 kmh 30.09 in1019.0 mb 0.00 in0.0 mm 0.00 in0.0 mm 0.12 in3.0 mm
05:15 PM 45.8°F7.7°C 35.8°F2.1°C 68% 2.0 mph NNE3.2 kmh NNE 5.0 mph8.0 kmh 30.09 in1019.0 mb 0.00 in0.0 mm 0.00 in0.0 mm 0.12 in3.0 mm
05:20 PM 45.6°F7.6°C 36.0°F2.2°C 69% 2.0 mph NNE3.2 kmh NNE 4.0 mph6.4 kmh 30.09 in1019.0 mb 0.00 in0.0 mm 0.00 in0.0 mm 0.12 in3.0 mm
05:25 PM 45.5°F7.5°C 35.9°F2.2°C 69% 3.0 mph NNE4.8 kmh NNE 5.0 mph8.0 kmh 30.09 in1019.0 mb 0.00 in0.0 mm 0.00 in0.0 mm 0.12 in3.0 mm
05:30 PM 45.5°F7.5°C 35.9°F2.2°C 69% 3.0 mph NNE4.8 kmh NNE 5.0 mph8.0 kmh 30.10 in1019.3 mb 0.00 in0.0 mm 0.00 in0.0 mm 0.12 in3.0 mm
05:35 PM 45.3°F7.4°C 35.3°F1.8°C 68% 3.0 mph NNE4.8 kmh NNE 5.0 mph8.0 kmh 30.10 in1019.3 mb 0.00 in0.0 mm 0.00 in0.0 mm 0.12 in3.0 mm
05:40 PM 45.2°F7.3°C 35.6°F2.0°C 69% 4.0 mph NNE6.4 kmh NNE 7.0 mph11.3 kmh 30.10 in1019.3 mb 0.00 in0.0 mm 0.00 in0.0 mm 0.12 in3.0 mm
05:45 PM 45.2°F7.3°C 35.6°F2.0°C 69% 2.0 mph NNE3.2 kmh NNE 7.0 mph11.3 kmh 30.10 in1019.3 mb 0.00 in0.0 mm 0.00 in0.0 mm 0.12 in3.0 mm
05:50 PM 45.1°F7.3°C 35.1°F1.7°C 68% 3.0 mph NNE4.8 kmh NNE 8.0 mph12.9 kmh 30.10 in1019.3 mb 0.00 in0.0 mm 0.00 in0.0 mm 0.12 in3.0 mm
05:55 PM 45.1°F7.3°C 35.1°F1.7°C 68% 4.0 mph NNE6.4 kmh NNE 7.0 mph11.3 kmh 30.10 in1019.3 mb 0.00 in0.0 mm 0.00 in0.0 mm 0.12 in3.0 mm
06:00 PM 45.2°F7.3°C 35.2°F1.8°C 68% 4.0 mph NNE6.4 kmh NNE 8.0 mph12.9 kmh 30.10 in1019.3 mb 0.00 in0.0 mm 0.00 in0.0 mm 0.12 in3.0 mm
06:05 PM 45.3°F7.4°C 35.3°F1.8°C 68% 5.0 mph NNE8.0 kmh NNE 5.0 mph8.0 kmh 30.11 in1019.6 mb 0.00 in0.0 mm 0.00 in0.0 mm 0.12 in3.0 mm
06:10 PM 45.4°F7.4°C 35.4°F1.9°C 68% 4.0 mph NNE6.4 kmh NNE 8.0 mph12.9 kmh 30.11 in1019.6 mb 0.00 in0.0 mm 0.00 in0.0 mm 0.12 in3.0 mm
06:15 PM 45.4°F7.4°C 35.0°F1.7°C 67% 3.0 mph NNE4.8 kmh NNE 7.0 mph11.3 kmh 30.11 in1019.6 mb 0.00 in0.0 mm 0.00 in0.0 mm 0.12 in3.0 mm
06:20 PM 45.3°F7.4°C 34.9°F1.6°C 67% 2.0 mph NNE3.2 kmh NNE 7.0 mph11.3 kmh 30.11 in1019.6 mb 0.00 in0.0 mm 0.00 in0.0 mm 0.12 in3.0 mm
06:25 PM 45.2°F7.3°C 35.2°F1.8°C 68% 2.0 mph NNE3.2 kmh NNE 8.0 mph12.9 kmh 30.11 in1019.6 mb 0.00 in0.0 mm 0.00 in0.0 mm 0.12 in3.0 mm
06:30 PM 45.2°F7.3°C 35.2°F1.8°C 68% 5.0 mph NNE8.0 kmh NNE 7.0 mph11.3 kmh 30.11 in1019.6 mb 0.00 in0.0 mm 0.00 in0.0 mm 0.12 in3.0 mm
06:35 PM 45.2°F7.3°C 35.2°F1.8°C 68% Calm Calm 8.0 mph12.9 kmh 30.11 in1019.6 mb 0.00 in0.0 mm 0.00 in0.0 mm 0.12 in3.0 mm
06:40 PM 45.2°F7.3°C 34.9°F1.6°C 67% 7.0 mph NNE11.3 kmh NNE 8.0 mph12.9 kmh 30.11 in1019.6 mb 0.00 in0.0 mm 0.00 in0.0 mm 0.12 in3.0 mm
06:45 PM 45.2°F7.3°C 34.9°F1.6°C 67% 3.0 mph NNE4.8 kmh NNE 8.0 mph12.9 kmh 30.11 in1019.6 mb 0.00 in0.0 mm 0.00 in0.0 mm 0.12 in3.0 mm
06:50 PM 45.1°F7.3°C 34.8°F1.6°C 67% 4.0 mph NNE6.4 kmh NNE 5.0 mph8.0 kmh 30.11 in1019.6 mb 0.00 in0.0 mm 0.00 in0.0 mm 0.12 in3.0 mm
06:55 PM 45.0°F7.2°C 34.3°F1.3°C 66% 7.0 mph NNE11.3 kmh NNE 7.0 mph11.3 kmh 30.11 in1019.6 mb 0.00 in0.0 mm 0.00 in0.0 mm 0.12 in3.0 mm
07:00 PM 45.0°F7.2°C 34.3°F1.3°C 66% 4.0 mph NNE6.4 kmh NNE 7.0 mph11.3 kmh 30.11 in1019.6 mb 0.00 in0.0 mm 0.00 in0.0 mm 0.12 in3.0 mm
07:05 PM 45.1°F7.3°C 34.4°F1.3°C 66% 4.0 mph NNE6.4 kmh NNE 8.0 mph12.9 kmh 30.11 in1019.6 mb 0.00 in0.0 mm 0.00 in0.0 mm 0.12 in3.0 mm
07:10 PM 45.2°F7.3°C 34.1°F1.2°C 65% 3.0 mph NNE4.8 kmh NNE 5.0 mph8.0 kmh 30.11 in1019.6 mb 0.00 in0.0 mm 0.00 in0.0 mm 0.12 in3.0 mm
07:15 PM 45.1°F7.3°C 34.0°F1.1°C 65% 5.0 mph NNE8.0 kmh NNE 7.0 mph11.3 kmh 30.11 in1019.6 mb 0.00 in0.0 mm 0.00 in0.0 mm 0.12 in3.0 mm
07:20 PM 45.1°F7.3°C 33.6°F0.9°C 64% 2.0 mph NNE3.2 kmh NNE 5.0 mph8.0 kmh 30.12 in1020.0 mb 0.00 in0.0 mm 0.00 in0.0 mm 0.12 in3.0 mm
07:25 PM 45.0°F7.2°C 33.5°F0.8°C 64% 3.0 mph NNE4.8 kmh NNE 5.0 mph8.0 kmh 30.11 in1019.6 mb 0.00 in0.0 mm 0.00 in0.0 mm 0.12 in3.0 mm
07:30 PM 44.9°F7.2°C 33.4°F0.8°C 64% 2.0 mph NNE3.2 kmh NNE 5.0 mph8.0 kmh 30.11 in1019.6 mb 0.00 in0.0 mm 0.00 in0.0 mm 0.12 in3.0 mm
07:35 PM 44.8°F7.1°C 33.3°F0.7°C 64% 3.0 mph NNE4.8 kmh NNE 5.0 mph8.0 kmh 30.12 in1020.0 mb 0.00 in0.0 mm 0.00 in0.0 mm 0.12 in3.0 mm
07:40 PM 44.6°F7.0°C 33.5°F0.8°C 65% 2.0 mph NNE3.2 kmh NNE 4.0 mph6.4 kmh 30.11 in1019.6 mb 0.00 in0.0 mm 0.00 in0.0 mm 0.12 in3.0 mm
07:45 PM 44.6°F7.0°C 33.5°F0.8°C 65% 3.0 mph NNE4.8 kmh NNE 5.0 mph8.0 kmh 30.12 in1020.0 mb 0.00 in0.0 mm 0.00 in0.0 mm 0.12 in3.0 mm
07:50 PM 44.6°F7.0°C 33.9°F1.1°C 66% 2.0 mph NNE3.2 kmh NNE 4.0 mph6.4 kmh 30.12 in1020.0 mb 0.00 in0.0 mm 0.00 in0.0 mm 0.12 in3.0 mm
07:55 PM 44.4°F6.9°C 34.1°F1.2°C 67% 2.0 mph NNE3.2 kmh NNE 3.0 mph4.8 kmh 30.12 in1020.0 mb 0.00 in0.0 mm 0.00 in0.0 mm 0.12 in3.0 mm
08:00 PM 44.3°F6.8°C 34.0°F1.1°C 67% 2.0 mph NNE3.2 kmh NNE 3.0 mph4.8 kmh 30.12 in1020.0 mb 0.00 in0.0 mm 0.00 in0.0 mm 0.12 in3.0 mm
08:05 PM 44.3°F6.8°C 34.0°F1.1°C 67% 2.0 mph NNE3.2 kmh NNE 3.0 mph4.8 kmh 30.12 in1020.0 mb 0.00 in0.0 mm 0.00 in0.0 mm 0.12 in3.0 mm
08:10 PM 44.4°F6.9°C 34.5°F1.4°C 68% Calm Calm 4.0 mph6.4 kmh 30.12 in1020.0 mb 0.00 in0.0 mm 0.00 in0.0 mm 0.12 in3.0 mm
08:15 PM 44.4°F6.9°C 34.5°F1.4°C 68% 2.0 mph NNE3.2 kmh NNE 4.0 mph6.4 kmh 30.12 in1020.0 mb 0.00 in0.0 mm 0.00 in0.0 mm 0.12 in3.0 mm
08:20 PM 44.5°F6.9°C 34.6°F1.4°C 68% 2.0 mph NNE3.2 kmh NNE 5.0 mph8.0 kmh 30.12 in1020.0 mb 0.00 in0.0 mm 0.00 in0.0 mm 0.12 in3.0 mm
08:25 PM 44.5°F6.9°C 34.6°F1.4°C 68% 2.0 mph NNE3.2 kmh NNE 4.0 mph6.4 kmh 30.12 in1020.0 mb 0.00 in0.0 mm 0.00 in0.0 mm 0.12 in3.0 mm
08:30 PM 44.3°F6.8°C 34.4°F1.3°C 68% Calm Calm 4.0 mph6.4 kmh 30.12 in1020.0 mb 0.00 in0.0 mm 0.00 in0.0 mm 0.12 in3.0 mm
08:35 PM 44.2°F6.8°C 34.3°F1.3°C 68% 2.0 mph NNE3.2 kmh NNE 4.0 mph6.4 kmh 30.12 in1020.0 mb 0.00 in0.0 mm 0.00 in0.0 mm 0.12 in3.0 mm
08:40 PM 44.2°F6.8°C 34.3°F1.3°C 68% 2.0 mph NNE3.2 kmh NNE 3.0 mph4.8 kmh 30.13 in1020.3 mb 0.00 in0.0 mm 0.00 in0.0 mm 0.12 in3.0 mm
08:45 PM 44.1°F6.7°C 34.2°F1.2°C 68% 2.0 mph NNE3.2 kmh NNE 3.0 mph4.8 kmh 30.13 in1020.3 mb 0.00 in0.0 mm 0.00 in0.0 mm 0.12 in3.0 mm
08:50 PM 44.2°F6.8°C 34.3°F1.3°C 68% 1.0 mph NNE1.6 kmh NNE 4.0 mph6.4 kmh 30.13 in1020.3 mb 0.00 in0.0 mm 0.00 in0.0 mm 0.12 in3.0 mm
08:55 PM 44.0°F6.7°C 34.1°F1.2°C 68% 2.0 mph NNE3.2 kmh NNE 3.0 mph4.8 kmh 30.13 in1020.3 mb 0.00 in0.0 mm 0.00 in0.0 mm 0.12 in3.0 mm
09:00 PM 43.7°F6.5°C 34.2°F1.2°C 69% Calm Calm 2.0 mph3.2 kmh 30.13 in1020.3 mb 0.00 in0.0 mm 0.00 in0.0 mm 0.12 in3.0 mm
09:05 PM 43.4°F6.3°C 33.9°F1.1°C 69% Calm Calm -- 30.13 in1020.3 mb 0.00 in0.0 mm 0.00 in0.0 mm 0.12 in3.0 mm
09:10 PM 42.7°F5.9°C 33.2°F0.7°C 69% Calm Calm -- 30.13 in1020.3 mb 0.00 in0.0 mm 0.00 in0.0 mm 0.12 in3.0 mm
09:15 PM 42.1°F5.6°C 33.0°F0.6°C 70% Calm Calm -- 30.13 in1020.3 mb 0.00 in0.0 mm 0.00 in0.0 mm 0.12 in3.0 mm
09:20 PM 41.6°F5.3°C 32.5°F0.3°C 70% Calm Calm -- 30.13 in1020.3 mb 0.00 in0.0 mm 0.00 in0.0 mm 0.12 in3.0 mm
09:25 PM 41.5°F5.3°C 32.4°F0.2°C 70% Calm Calm 2.0 mph3.2 kmh 30.13 in1020.3 mb 0.00 in0.0 mm 0.00 in0.0 mm 0.12 in3.0 mm
09:30 PM 41.6°F5.3°C 32.9°F0.5°C 71% Calm Calm 1.0 mph1.6 kmh 30.13 in1020.3 mb 0.00 in0.0 mm 0.00 in0.0 mm 0.12 in3.0 mm
09:35 PM 41.8°F5.4°C 33.0°F0.6°C 71% Calm Calm -- 30.13 in1020.3 mb 0.00 in0.0 mm 0.00 in0.0 mm 0.12 in3.0 mm
09:40 PM 41.9°F5.5°C 33.1°F0.6°C 71% Calm Calm -- 30.13 in1020.3 mb 0.00 in0.0 mm 0.00 in0.0 mm 0.12 in3.0 mm
09:45 PM 41.9°F5.5°C 33.5°F0.8°C 72% Calm Calm -- 30.13 in1020.3 mb 0.00 in0.0 mm 0.00 in0.0 mm 0.12 in3.0 mm
09:50 PM 41.8°F5.4°C 33.4°F0.8°C 72% Calm Calm -- 30.13 in1020.3 mb 0.00 in0.0 mm 0.00 in0.0 mm 0.12 in3.0 mm
09:55 PM 41.3°F5.2°C 32.6°F0.3°C 71% Calm Calm 1.0 mph1.6 kmh 30.13 in1020.3 mb 0.00 in0.0 mm 0.00 in0.0 mm 0.12 in3.0 mm
10:00 PM 40.7°F4.8°C 32.3°F0.2°C 72% Calm Calm 1.0 mph1.6 kmh 30.13 in1020.3 mb 0.00 in0.0 mm 0.00 in0.0 mm 0.12 in3.0 mm
10:05 PM 40.2°F4.6°C 31.9°F-0.1°C 72% 2.0 mph NNE3.2 kmh NNE 2.0 mph3.2 kmh 30.13 in1020.3 mb 0.00 in0.0 mm 0.00 in0.0 mm 0.12 in3.0 mm
10:10 PM 39.8°F4.3°C 31.5°F-0.3°C 72% 2.0 mph NNE3.2 kmh NNE 3.0 mph4.8 kmh 30.13 in1020.3 mb 0.00 in0.0 mm 0.00 in0.0 mm 0.12 in3.0 mm
10:15 PM 39.4°F4.1°C 31.1°F-0.5°C 72% 1.0 mph NNE1.6 kmh NNE 4.0 mph6.4 kmh 30.13 in1020.3 mb 0.00 in0.0 mm 0.00 in0.0 mm 0.12 in3.0 mm
10:20 PM 39.2°F4.0°C 30.9°F-0.6°C 72% 1.0 mph NNE1.6 kmh NNE 3.0 mph4.8 kmh 30.13 in1020.3 mb 0.00 in0.0 mm 0.00 in0.0 mm 0.12 in3.0 mm
10:25 PM 39.3°F4.1°C 31.0°F-0.6°C 72% Calm Calm 2.0 mph3.2 kmh 30.13 in1020.3 mb 0.00 in0.0 mm 0.00 in0.0 mm 0.12 in3.0 mm
10:30 PM 39.2°F4.0°C 30.9°F-0.6°C 72% Calm Calm 3.0 mph4.8 kmh 30.13 in1020.3 mb 0.00 in0.0 mm 0.00 in0.0 mm 0.12 in3.0 mm
10:35 PM 39.0°F3.9°C 30.7°F-0.7°C 72% 3.0 mph NNE4.8 kmh NNE 3.0 mph4.8 kmh 30.13 in1020.3 mb 0.00 in0.0 mm 0.00 in0.0 mm 0.12 in3.0 mm
10:40 PM 38.8°F3.8°C 30.5°F-0.8°C 72% Calm Calm 3.0 mph4.8 kmh 30.13 in1020.3 mb 0.00 in0.0 mm 0.00 in0.0 mm 0.12 in3.0 mm
10:45 PM 38.7°F3.7°C 30.4°F-0.9°C 72% Calm Calm 2.0 mph3.2 kmh 30.13 in1020.3 mb 0.00 in0.0 mm 0.00 in0.0 mm 0.12 in3.0 mm
10:50 PM 38.5°F3.6°C 30.2°F-1.0°C 72% 2.0 mph NNE3.2 kmh NNE 3.0 mph4.8 kmh 30.13 in1020.3 mb 0.00 in0.0 mm 0.00 in0.0 mm 0.12 in3.0 mm
10:55 PM 38.4°F3.6°C 30.1°F-1.1°C 72% 1.0 mph NNE1.6 kmh NNE 3.0 mph4.8 kmh 30.13 in1020.3 mb 0.00 in0.0 mm 0.00 in0.0 mm 0.12 in3.0 mm
11:00 PM 38.5°F3.6°C 30.2°F-1.0°C 72% Calm Calm 2.0 mph3.2 kmh 30.12 in1020.0 mb 0.00 in0.0 mm 0.00 in0.0 mm 0.12 in3.0 mm
11:05 PM 38.6°F3.7°C 30.3°F-0.9°C 72% Calm Calm 1.0 mph1.6 kmh 30.13 in1020.3 mb 0.00 in0.0 mm 0.00 in0.0 mm 0.12 in3.0 mm
11:10 PM 38.4°F3.6°C 30.1°F-1.1°C 72% 2.0 mph NNE3.2 kmh NNE 4.0 mph6.4 kmh 30.13 in1020.3 mb 0.00 in0.0 mm 0.00 in0.0 mm 0.12 in3.0 mm
11:15 PM 38.0°F3.3°C 29.7°F-1.3°C 72% 3.0 mph NNE4.8 kmh NNE 4.0 mph6.4 kmh 30.13 in1020.3 mb 0.00 in0.0 mm 0.00 in0.0 mm 0.12 in3.0 mm
11:20 PM 37.6°F3.1°C 29.4°F-1.4°C 72% 1.0 mph NNE1.6 kmh NNE 3.0 mph4.8 kmh 30.13 in1020.3 mb 0.00 in0.0 mm 0.00 in0.0 mm 0.12 in3.0 mm
11:25 PM 37.4°F3.0°C 29.2°F-1.6°C 72% 1.0 mph NNE1.6 kmh NNE 2.0 mph3.2 kmh 30.13 in1020.3 mb 0.00 in0.0 mm 0.00 in0.0 mm 0.12 in3.0 mm
11:30 PM 37.2°F2.9°C 29.3°F-1.5°C 73% 1.0 mph NNE1.6 kmh NNE 3.0 mph4.8 kmh 30.12 in1020.0 mb 0.00 in0.0 mm 0.00 in0.0 mm 0.12 in3.0 mm
11:35 PM 37.1°F2.8°C 29.2°F-1.6°C 73% Calm Calm 4.0 mph6.4 kmh 30.12 in1020.0 mb 0.00 in0.0 mm 0.00 in0.0 mm 0.12 in3.0 mm
11:40 PM 37.2°F2.9°C 29.3°F-1.5°C 73% Calm Calm 3.0 mph4.8 kmh 30.13 in1020.3 mb 0.00 in0.0 mm 0.00 in0.0 mm 0.12 in3.0 mm
11:45 PM 37.2°F2.9°C 29.3°F-1.5°C 73% Calm Calm 1.0 mph1.6 kmh 30.13 in1020.3 mb 0.00 in0.0 mm 0.00 in0.0 mm 0.12 in3.0 mm
11:50 PM 37.4°F3.0°C 29.5°F-1.4°C 73% Calm Calm 2.0 mph3.2 kmh 30.13 in1020.3 mb 0.00 in0.0 mm 0.00 in0.0 mm 0.12 in3.0 mm
11:55 PM 37.5°F3.1°C 29.3°F-1.5°C 72% Calm Calm 2.0 mph3.2 kmh 30.13 in1020.3 mb 0.00 in0.0 mm 0.00 in0.0 mm 0.12 in3.0 mm